sensor_id;sensor_type;location;lat;lon;timestamp;P1;durP1;ratioP1;P2;durP2;ratioP2
5569;SDS011;2808;51.240;6.794;2023-08-06T00:01:31;8.07;;;3.83;;
5569;SDS011;2808;51.240;6.794;2023-08-06T00:03:59;7.30;;;4.00;;
5569;SDS011;2808;51.240;6.794;2023-08-06T00:06:27;8.00;;;3.87;;
5569;SDS011;2808;51.240;6.794;2023-08-06T00:08:54;6.00;;;3.80;;
5569;SDS011;2808;51.240;6.794;2023-08-06T00:11:22;11.83;;;4.17;;
5569;SDS011;2808;51.240;6.794;2023-08-06T00:13:49;5.90;;;3.60;;
5569;SDS011;2808;51.240;6.794;2023-08-06T00:16:16;7.30;;;3.40;;
5569;SDS011;2808;51.240;6.794;2023-08-06T00:18:44;7.63;;;3.53;;
5569;SDS011;2808;51.240;6.794;2023-08-06T00:21:12;8.00;;;3.60;;
5569;SDS011;2808;51.240;6.794;2023-08-06T00:23:40;6.70;;;3.40;;
5569;SDS011;2808;51.240;6.794;2023-08-06T00:26:07;10.60;;;3.40;;
5569;SDS011;2808;51.240;6.794;2023-08-06T00:28:35;8.00;;;3.00;;
5569;SDS011;2808;51.240;6.794;2023-08-06T00:31:02;10.73;;;3.40;;
5569;SDS011;2808;51.240;6.794;2023-08-06T00:33:32;10.33;;;3.53;;
5569;SDS011;2808;51.240;6.794;2023-08-06T00:36:00;8.70;;;3.50;;
5569;SDS011;2808;51.240;6.794;2023-08-06T00:38:29;6.30;;;3.00;;
5569;SDS011;2808;51.240;6.794;2023-08-06T00:40:56;7.07;;;2.83;;
5569;SDS011;2808;51.240;6.794;2023-08-06T00:43:23;7.17;;;3.40;;
5569;SDS011;2808;51.240;6.794;2023-08-06T00:45:51;8.33;;;3.87;;
5569;SDS011;2808;51.240;6.794;2023-08-06T00:48:18;7.23;;;3.20;;
5569;SDS011;2808;51.240;6.794;2023-08-06T00:50:46;6.83;;;3.00;;
5569;SDS011;2808;51.240;6.794;2023-08-06T00:53:15;7.73;;;3.17;;
5569;SDS011;2808;51.240;6.794;2023-08-06T00:55:44;5.07;;;2.93;;
5569;SDS011;2808;51.240;6.794;2023-08-06T00:58:12;13.13;;;3.60;;
5569;SDS011;2808;51.240;6.794;2023-08-06T01:00:40;6.00;;;3.10;;
5569;SDS011;2808;51.240;6.794;2023-08-06T01:03:07;5.20;;;3.00;;
5569;SDS011;2808;51.240;6.794;2023-08-06T01:05:35;9.03;;;2.73;;
5569;SDS011;2808;51.240;6.794;2023-08-06T01:08:08;7.60;;;3.13;;
5569;SDS011;2808;51.240;6.794;2023-08-06T01:10:45;8.80;;;3.50;;
5569;SDS011;2808;51.240;6.794;2023-08-06T01:13:23;7.17;;;2.87;;
5569;SDS011;2808;51.240;6.794;2023-08-06T01:15:56;6.13;;;2.97;;
5569;SDS011;2808;51.240;6.794;2023-08-06T01:18:27;7.40;;;3.57;;
5569;SDS011;2808;51.240;6.794;2023-08-06T01:20:56;7.47;;;2.90;;
5569;SDS011;2808;51.240;6.794;2023-08-06T01:23:23;6.37;;;3.40;;
5569;SDS011;2808;51.240;6.794;2023-08-06T01:25:53;9.13;;;3.00;;
5569;SDS011;2808;51.240;6.794;2023-08-06T01:28:31;5.30;;;3.03;;
5569;SDS011;2808;51.240;6.794;2023-08-06T01:31:05;6.50;;;3.23;;
5569;SDS011;2808;51.240;6.794;2023-08-06T01:33:40;7.57;;;2.90;;
5569;SDS011;2808;51.240;6.794;2023-08-06T01:36:14;7.00;;;3.30;;
5569;SDS011;2808;51.240;6.794;2023-08-06T01:38:43;5.97;;;2.90;;
5569;SDS011;2808;51.240;6.794;2023-08-06T01:41:11;5.27;;;2.80;;
5569;SDS011;2808;51.240;6.794;2023-08-06T01:43:38;9.67;;;3.47;;
5569;SDS011;2808;51.240;6.794;2023-08-06T01:46:06;9.87;;;3.70;;
5569;SDS011;2808;51.240;6.794;2023-08-06T01:48:33;7.30;;;3.10;;
5569;SDS011;2808;51.240;6.794;2023-08-06T01:51:04;15.80;;;3.77;;
5569;SDS011;2808;51.240;6.794;2023-08-06T01:53:33;8.00;;;3.20;;
5569;SDS011;2808;51.240;6.794;2023-08-06T01:56:01;4.80;;;2.83;;
5569;SDS011;2808;51.240;6.794;2023-08-06T01:58:28;10.93;;;3.33;;
5569;SDS011;2808;51.240;6.794;2023-08-06T02:00:56;6.40;;;3.00;;
5569;SDS011;2808;51.240;6.794;2023-08-06T02:03:23;5.03;;;2.90;;
5569;SDS011;2808;51.240;6.794;2023-08-06T02:05:51;23.10;;;3.50;;
5569;SDS011;2808;51.240;6.794;2023-08-06T02:08:18;11.67;;;2.93;;
5569;SDS011;2808;51.240;6.794;2023-08-06T02:10:47;6.57;;;2.90;;
5569;SDS011;2808;51.240;6.794;2023-08-06T02:13:14;8.10;;;3.10;;
5569;SDS011;2808;51.240;6.794;2023-08-06T02:15:42;8.00;;;3.40;;
5569;SDS011;2808;51.240;6.794;2023-08-06T02:18:10;8.77;;;3.83;;
5569;SDS011;2808;51.240;6.794;2023-08-06T02:20:37;9.03;;;3.40;;
5569;SDS011;2808;51.240;6.794;2023-08-06T02:23:04;10.00;;;3.23;;
5569;SDS011;2808;51.240;6.794;2023-08-06T02:25:32;9.10;;;3.07;;
5569;SDS011;2808;51.240;6.794;2023-08-06T02:28:01;7.30;;;3.67;;
5569;SDS011;2808;51.240;6.794;2023-08-06T02:30:29;8.50;;;3.37;;
5569;SDS011;2808;51.240;6.794;2023-08-06T02:32:56;7.77;;;3.07;;
5569;SDS011;2808;51.240;6.794;2023-08-06T02:35:23;6.10;;;3.10;;
5569;SDS011;2808;51.240;6.794;2023-08-06T02:37:51;7.20;;;3.07;;
5569;SDS011;2808;51.240;6.794;2023-08-06T02:40:18;5.63;;;2.80;;
5569;SDS011;2808;51.240;6.794;2023-08-06T02:42:46;9.00;;;3.37;;
5569;SDS011;2808;51.240;6.794;2023-08-06T02:45:14;12.93;;;3.57;;
5569;SDS011;2808;51.240;6.794;2023-08-06T02:47:42;7.90;;;3.83;;
5569;SDS011;2808;51.240;6.794;2023-08-06T02:50:09;7.23;;;3.30;;
5569;SDS011;2808;51.240;6.794;2023-08-06T02:52:36;7.57;;;3.17;;
5569;SDS011;2808;51.240;6.794;2023-08-06T02:55:05;7.27;;;3.20;;
5569;SDS011;2808;51.240;6.794;2023-08-06T02:57:33;8.30;;;3.30;;
5569;SDS011;2808;51.240;6.794;2023-08-06T03:00:00;7.67;;;3.40;;
5569;SDS011;2808;51.240;6.794;2023-08-06T03:02:29;15.93;;;3.90;;
5569;SDS011;2808;51.240;6.794;2023-08-06T03:04:56;6.30;;;3.50;;
5569;SDS011;2808;51.240;6.794;2023-08-06T03:07:24;6.43;;;2.87;;
5569;SDS011;2808;51.240;6.794;2023-08-06T03:09:51;7.90;;;3.60;;
5569;SDS011;2808;51.240;6.794;2023-08-06T03:12:18;6.60;;;3.40;;
5569;SDS011;2808;51.240;6.794;2023-08-06T03:14:46;7.80;;;3.30;;
5569;SDS011;2808;51.240;6.794;2023-08-06T03:17:13;5.20;;;3.20;;
5569;SDS011;2808;51.240;6.794;2023-08-06T03:19:42;8.30;;;3.00;;
5569;SDS011;2808;51.240;6.794;2023-08-06T03:22:09;6.37;;;3.20;;
5569;SDS011;2808;51.240;6.794;2023-08-06T03:24:36;7.60;;;3.10;;
5569;SDS011;2808;51.240;6.794;2023-08-06T03:27:04;6.63;;;3.27;;
5569;SDS011;2808;51.240;6.794;2023-08-06T03:29:32;5.50;;;3.13;;
5569;SDS011;2808;51.240;6.794;2023-08-06T03:31:59;7.00;;;3.13;;
5569;SDS011;2808;51.240;6.794;2023-08-06T03:34:26;6.00;;;3.20;;
5569;SDS011;2808;51.240;6.794;2023-08-06T03:36:55;7.67;;;3.20;;
5569;SDS011;2808;51.240;6.794;2023-08-06T03:39:24;5.67;;;3.53;;
5569;SDS011;2808;51.240;6.794;2023-08-06T03:41:52;6.60;;;3.10;;
5569;SDS011;2808;51.240;6.794;2023-08-06T03:44:19;8.27;;;3.20;;
5569;SDS011;2808;51.240;6.794;2023-08-06T03:46:46;6.10;;;2.80;;
5569;SDS011;2808;51.240;6.794;2023-08-06T03:49:14;6.67;;;3.10;;
5569;SDS011;2808;51.240;6.794;2023-08-06T03:51:41;5.50;;;3.00;;
5569;SDS011;2808;51.240;6.794;2023-08-06T03:54:10;5.60;;;3.20;;
5569;SDS011;2808;51.240;6.794;2023-08-06T03:56:37;7.80;;;3.20;;
5569;SDS011;2808;51.240;6.794;2023-08-06T03:59:04;6.27;;;2.87;;
5569;SDS011;2808;51.240;6.794;2023-08-06T04:01:32;7.00;;;3.10;;
5569;SDS011;2808;51.240;6.794;2023-08-06T04:03:59;7.10;;;3.60;;
5569;SDS011;2808;51.240;6.794;2023-08-06T04:06:26;5.53;;;2.67;;
5569;SDS011;2808;51.240;6.794;2023-08-06T04:08:54;7.40;;;3.20;;
5569;SDS011;2808;51.240;6.794;2023-08-06T04:11:22;8.43;;;3.10;;
5569;SDS011;2808;51.240;6.794;2023-08-06T04:13:50;14.10;;;3.30;;
5569;SDS011;2808;51.240;6.794;2023-08-06T04:16:19;9.23;;;3.03;;
5569;SDS011;2808;51.240;6.794;2023-08-06T04:18:46;6.50;;;3.13;;
5569;SDS011;2808;51.240;6.794;2023-08-06T04:21:13;6.53;;;3.10;;
5569;SDS011;2808;51.240;6.794;2023-08-06T04:23:41;9.17;;;2.93;;
5569;SDS011;2808;51.240;6.794;2023-08-06T04:26:09;6.80;;;2.57;;
5569;SDS011;2808;51.240;6.794;2023-08-06T04:28:37;9.93;;;2.90;;
5569;SDS011;2808;51.240;6.794;2023-08-06T04:31:05;7.03;;;3.20;;
5569;SDS011;2808;51.240;6.794;2023-08-06T04:33:32;9.90;;;3.13;;
5569;SDS011;2808;51.240;6.794;2023-08-06T04:35:59;5.50;;;3.10;;
5569;SDS011;2808;51.240;6.794;2023-08-06T04:38:27;5.97;;;3.20;;
5569;SDS011;2808;51.240;6.794;2023-08-06T04:40:54;7.80;;;3.03;;
5569;SDS011;2808;51.240;6.794;2023-08-06T04:43:22;14.80;;;3.10;;
5569;SDS011;2808;51.240;6.794;2023-08-06T04:45:51;4.90;;;2.73;;
5569;SDS011;2808;51.240;6.794;2023-08-06T04:48:19;11.57;;;2.80;;
5569;SDS011;2808;51.240;6.794;2023-08-06T04:50:48;10.13;;;2.70;;
5569;SDS011;2808;51.240;6.794;2023-08-06T04:53:16;9.57;;;3.37;;
5569;SDS011;2808;51.240;6.794;2023-08-06T04:55:44;7.73;;;3.17;;
5569;SDS011;2808;51.240;6.794;2023-08-06T04:58:12;9.30;;;3.10;;
5569;SDS011;2808;51.240;6.794;2023-08-06T05:00:39;9.53;;;2.50;;
5569;SDS011;2808;51.240;6.794;2023-08-06T05:03:08;7.50;;;3.33;;
5569;SDS011;2808;51.240;6.794;2023-08-06T05:05:35;4.87;;;2.77;;
5569;SDS011;2808;51.240;6.794;2023-08-06T05:08:03;5.90;;;2.60;;
5569;SDS011;2808;51.240;6.794;2023-08-06T05:10:30;5.20;;;2.70;;
5569;SDS011;2808;51.240;6.794;2023-08-06T05:12:58;7.10;;;2.93;;
5569;SDS011;2808;51.240;6.794;2023-08-06T05:15:26;11.07;;;2.90;;
5569;SDS011;2808;51.240;6.794;2023-08-06T05:17:53;5.83;;;2.97;;
5569;SDS011;2808;51.240;6.794;2023-08-06T05:20:22;8.27;;;2.90;;
5569;SDS011;2808;51.240;6.794;2023-08-06T05:22:49;14.07;;;3.50;;
5569;SDS011;2808;51.240;6.794;2023-08-06T05:25:17;6.20;;;2.90;;
5569;SDS011;2808;51.240;6.794;2023-08-06T05:27:46;9.73;;;2.93;;
5569;SDS011;2808;51.240;6.794;2023-08-06T05:30:14;5.43;;;2.40;;
5569;SDS011;2808;51.240;6.794;2023-08-06T05:32:42;6.03;;;3.10;;
5569;SDS011;2808;51.240;6.794;2023-08-06T05:35:09;7.30;;;3.13;;
5569;SDS011;2808;51.240;6.794;2023-08-06T05:37:38;6.23;;;2.80;;
5569;SDS011;2808;51.240;6.794;2023-08-06T05:40:06;6.53;;;2.60;;
5569;SDS011;2808;51.240;6.794;2023-08-06T05:42:34;13.77;;;2.83;;
5569;SDS011;2808;51.240;6.794;2023-08-06T05:45:01;9.70;;;2.80;;
5569;SDS011;2808;51.240;6.794;2023-08-06T05:47:29;8.00;;;2.63;;
5569;SDS011;2808;51.240;6.794;2023-08-06T05:49:57;7.40;;;2.77;;
5569;SDS011;2808;51.240;6.794;2023-08-06T05:52:24;5.70;;;2.40;;
5569;SDS011;2808;51.240;6.794;2023-08-06T05:54:53;7.70;;;2.20;;
5569;SDS011;2808;51.240;6.794;2023-08-06T05:57:20;8.70;;;2.40;;
5569;SDS011;2808;51.240;6.794;2023-08-06T05:59:48;6.20;;;2.70;;
5569;SDS011;2808;51.240;6.794;2023-08-06T06:02:15;7.40;;;2.20;;
5569;SDS011;2808;51.240;6.794;2023-08-06T06:04:43;5.83;;;2.23;;
5569;SDS011;2808;51.240;6.794;2023-08-06T06:07:11;8.87;;;2.13;;
5569;SDS011;2808;51.240;6.794;2023-08-06T06:09:39;5.70;;;2.33;;
5569;SDS011;2808;51.240;6.794;2023-08-06T06:12:08;9.93;;;2.40;;
5569;SDS011;2808;51.240;6.794;2023-08-06T06:14:35;5.40;;;2.20;;
5569;SDS011;2808;51.240;6.794;2023-08-06T06:17:03;4.97;;;2.33;;
5569;SDS011;2808;51.240;6.794;2023-08-06T06:19:30;6.73;;;2.20;;
5569;SDS011;2808;51.240;6.794;2023-08-06T06:21:57;10.37;;;2.63;;
5569;SDS011;2808;51.240;6.794;2023-08-06T06:24:27;6.07;;;2.37;;
5569;SDS011;2808;51.240;6.794;2023-08-06T06:26:54;4.30;;;1.93;;
5569;SDS011;2808;51.240;6.794;2023-08-06T06:29:23;6.23;;;2.30;;
5569;SDS011;2808;51.240;6.794;2023-08-06T06:31:50;6.87;;;1.90;;
5569;SDS011;2808;51.240;6.794;2023-08-06T06:34:18;5.87;;;1.80;;
5569;SDS011;2808;51.240;6.794;2023-08-06T06:36:45;5.53;;;2.83;;
5569;SDS011;2808;51.240;6.794;2023-08-06T06:39:13;5.23;;;2.00;;
5569;SDS011;2808;51.240;6.794;2023-08-06T06:41:40;5.63;;;2.13;;
5569;SDS011;2808;51.240;6.794;2023-08-06T06:44:09;5.23;;;1.90;;
5569;SDS011;2808;51.240;6.794;2023-08-06T06:46:38;3.80;;;1.50;;
5569;SDS011;2808;51.240;6.794;2023-08-06T06:49:05;4.10;;;2.07;;
5569;SDS011;2808;51.240;6.794;2023-08-06T06:51:32;3.40;;;1.43;;
5569;SDS011;2808;51.240;6.794;2023-08-06T06:54:00;3.77;;;1.40;;
5569;SDS011;2808;51.240;6.794;2023-08-06T06:56:27;6.00;;;1.53;;
5569;SDS011;2808;51.240;6.794;2023-08-06T06:58:54;4.63;;;1.70;;
5569;SDS011;2808;51.240;6.794;2023-08-06T07:01:22;4.00;;;1.80;;
5569;SDS011;2808;51.240;6.794;2023-08-06T07:03:51;4.23;;;1.90;;
5569;SDS011;2808;51.240;6.794;2023-08-06T07:06:18;5.13;;;1.63;;
5569;SDS011;2808;51.240;6.794;2023-08-06T07:08:46;3.97;;;1.70;;
5569;SDS011;2808;51.240;6.794;2023-08-06T07:11:13;7.00;;;2.00;;
5569;SDS011;2808;51.240;6.794;2023-08-06T07:13:40;5.27;;;1.80;;
5569;SDS011;2808;51.240;6.794;2023-08-06T07:16:08;4.73;;;1.83;;
5569;SDS011;2808;51.240;6.794;2023-08-06T07:18:35;4.63;;;1.70;;
5569;SDS011;2808;51.240;6.794;2023-08-06T07:21:04;5.77;;;1.83;;
5569;SDS011;2808;51.240;6.794;2023-08-06T07:23:31;4.27;;;1.73;;
5569;SDS011;2808;51.240;6.794;2023-08-06T07:25:58;3.70;;;1.73;;
5569;SDS011;2808;51.240;6.794;2023-08-06T07:28:26;3.50;;;1.70;;
5569;SDS011;2808;51.240;6.794;2023-08-06T07:30:53;4.07;;;1.60;;
5569;SDS011;2808;51.240;6.794;2023-08-06T07:33:21;4.27;;;2.23;;
5569;SDS011;2808;51.240;6.794;2023-08-06T07:35:48;6.67;;;1.93;;
5569;SDS011;2808;51.240;6.794;2023-08-06T07:38:17;4.27;;;1.90;;
5569;SDS011;2808;51.240;6.794;2023-08-06T07:40:47;4.07;;;1.73;;
5569;SDS011;2808;51.240;6.794;2023-08-06T07:43:14;4.23;;;1.70;;
5569;SDS011;2808;51.240;6.794;2023-08-06T07:45:42;4.10;;;1.80;;
5569;SDS011;2808;51.240;6.794;2023-08-06T07:48:09;6.70;;;2.10;;
5569;SDS011;2808;51.240;6.794;2023-08-06T07:50:36;3.97;;;1.70;;
5569;SDS011;2808;51.240;6.794;2023-08-06T07:53:04;4.60;;;2.00;;
5569;SDS011;2808;51.240;6.794;2023-08-06T07:55:34;6.60;;;2.57;;
5569;SDS011;2808;51.240;6.794;2023-08-06T07:58:02;5.30;;;2.40;;
5569;SDS011;2808;51.240;6.794;2023-08-06T08:00:29;6.57;;;3.27;;
5569;SDS011;2808;51.240;6.794;2023-08-06T08:02:56;5.03;;;2.97;;
5569;SDS011;2808;51.240;6.794;2023-08-06T08:05:24;7.57;;;3.57;;
5569;SDS011;2808;51.240;6.794;2023-08-06T08:07:51;7.70;;;3.80;;
5569;SDS011;2808;51.240;6.794;2023-08-06T08:10:19;9.67;;;4.47;;
5569;SDS011;2808;51.240;6.794;2023-08-06T08:12:49;10.67;;;4.27;;
5569;SDS011;2808;51.240;6.794;2023-08-06T08:15:17;7.33;;;3.90;;
5569;SDS011;2808;51.240;6.794;2023-08-06T08:17:44;6.30;;;3.70;;
5569;SDS011;2808;51.240;6.794;2023-08-06T08:20:13;6.90;;;3.73;;
5569;SDS011;2808;51.240;6.794;2023-08-06T08:22:42;7.00;;;3.73;;
5569;SDS011;2808;51.240;6.794;2023-08-06T08:25:09;8.63;;;4.00;;
5569;SDS011;2808;51.240;6.794;2023-08-06T08:27:37;7.80;;;3.97;;
5569;SDS011;2808;51.240;6.794;2023-08-06T08:30:08;5.80;;;2.63;;
5569;SDS011;2808;51.240;6.794;2023-08-06T08:32:35;4.47;;;2.33;;
5569;SDS011;2808;51.240;6.794;2023-08-06T08:35:03;4.50;;;2.20;;
5569;SDS011;2808;51.240;6.794;2023-08-06T08:37:30;3.97;;;2.20;;
5569;SDS011;2808;51.240;6.794;2023-08-06T08:39:58;4.00;;;2.20;;
5569;SDS011;2808;51.240;6.794;2023-08-06T08:42:25;4.10;;;2.10;;
5569;SDS011;2808;51.240;6.794;2023-08-06T08:44:53;4.90;;;1.90;;
5569;SDS011;2808;51.240;6.794;2023-08-06T08:47:23;3.87;;;1.80;;
5569;SDS011;2808;51.240;6.794;2023-08-06T08:49:52;3.67;;;2.00;;
5569;SDS011;2808;51.240;6.794;2023-08-06T08:52:22;3.93;;;1.87;;
5569;SDS011;2808;51.240;6.794;2023-08-06T08:54:55;5.50;;;2.07;;
5569;SDS011;2808;51.240;6.794;2023-08-06T08:57:24;7.13;;;2.30;;
5569;SDS011;2808;51.240;6.794;2023-08-06T08:59:52;4.90;;;2.30;;
5569;SDS011;2808;51.240;6.794;2023-08-06T09:02:19;3.97;;;1.70;;
5569;SDS011;2808;51.240;6.794;2023-08-06T09:04:51;5.50;;;2.03;;
5569;SDS011;2808;51.240;6.794;2023-08-06T09:07:18;7.23;;;2.00;;
5569;SDS011;2808;51.240;6.794;2023-08-06T09:09:48;5.23;;;1.70;;
5569;SDS011;2808;51.240;6.794;2023-08-06T09:12:17;6.00;;;2.10;;
5569;SDS011;2808;51.240;6.794;2023-08-06T09:14:44;5.97;;;1.67;;
5569;SDS011;2808;51.240;6.794;2023-08-06T09:17:12;3.73;;;2.00;;
5569;SDS011;2808;51.240;6.794;2023-08-06T09:19:42;4.10;;;1.70;;
5569;SDS011;2808;51.240;6.794;2023-08-06T09:22:11;4.33;;;1.93;;
5569;SDS011;2808;51.240;6.794;2023-08-06T09:24:39;5.97;;;2.67;;
5569;SDS011;2808;51.240;6.794;2023-08-06T09:27:10;4.27;;;2.00;;
5569;SDS011;2808;51.240;6.794;2023-08-06T09:29:41;6.47;;;1.97;;
5569;SDS011;2808;51.240;6.794;2023-08-06T09:32:10;3.97;;;2.00;;
5569;SDS011;2808;51.240;6.794;2023-08-06T09:34:38;5.57;;;2.67;;
5569;SDS011;2808;51.240;6.794;2023-08-06T09:37:09;5.57;;;2.27;;
5569;SDS011;2808;51.240;6.794;2023-08-06T09:39:38;6.60;;;2.70;;
5569;SDS011;2808;51.240;6.794;2023-08-06T09:42:06;4.87;;;2.30;;
5569;SDS011;2808;51.240;6.794;2023-08-06T09:44:34;6.30;;;2.63;;
5569;SDS011;2808;51.240;6.794;2023-08-06T09:47:01;6.97;;;2.73;;
5569;SDS011;2808;51.240;6.794;2023-08-06T09:49:40;5.73;;;2.67;;
5569;SDS011;2808;51.240;6.794;2023-08-06T09:52:12;7.30;;;3.00;;
5569;SDS011;2808;51.240;6.794;2023-08-06T09:54:41;7.73;;;2.93;;
5569;SDS011;2808;51.240;6.794;2023-08-06T09:57:11;9.37;;;3.13;;
5569;SDS011;2808;51.240;6.794;2023-08-06T09:59:40;10.10;;;3.10;;
5569;SDS011;2808;51.240;6.794;2023-08-06T10:02:11;9.77;;;3.87;;
5569;SDS011;2808;51.240;6.794;2023-08-06T10:04:39;14.40;;;4.47;;
5569;SDS011;2808;51.240;6.794;2023-08-06T10:07:08;11.27;;;3.40;;
5569;SDS011;2808;51.240;6.794;2023-08-06T10:09:38;6.53;;;3.00;;
5569;SDS011;2808;51.240;6.794;2023-08-06T10:12:05;7.87;;;2.47;;
5569;SDS011;2808;51.240;6.794;2023-08-06T10:14:34;6.80;;;2.40;;
5569;SDS011;2808;51.240;6.794;2023-08-06T10:17:03;6.23;;;2.50;;
5569;SDS011;2808;51.240;6.794;2023-08-06T10:19:32;6.90;;;2.07;;
5569;SDS011;2808;51.240;6.794;2023-08-06T10:22:09;7.63;;;2.37;;
5569;SDS011;2808;51.240;6.794;2023-08-06T10:24:52;5.07;;;2.07;;
5569;SDS011;2808;51.240;6.794;2023-08-06T10:27:28;7.13;;;2.20;;
5569;SDS011;2808;51.240;6.794;2023-08-06T10:30:09;2.93;;;1.53;;
5569;SDS011;2808;51.240;6.794;2023-08-06T10:32:48;6.17;;;1.57;;
5569;SDS011;2808;51.240;6.794;2023-08-06T10:35:31;5.40;;;2.03;;
5569;SDS011;2808;51.240;6.794;2023-08-06T10:38:07;4.17;;;1.83;;
5569;SDS011;2808;51.240;6.794;2023-08-06T10:40:37;3.20;;;1.90;;
5569;SDS011;2808;51.240;6.794;2023-08-06T10:43:07;3.40;;;1.60;;
5569;SDS011;2808;51.240;6.794;2023-08-06T10:45:50;2.30;;;1.00;;
5569;SDS011;2808;51.240;6.794;2023-08-06T10:48:27;4.17;;;1.17;;
5569;SDS011;2808;51.240;6.794;2023-08-06T10:50:56;2.50;;;1.10;;
5569;SDS011;2808;51.240;6.794;2023-08-06T10:53:25;2.97;;;1.00;;
5569;SDS011;2808;51.240;6.794;2023-08-06T10:55:54;4.20;;;1.10;;
5569;SDS011;2808;51.240;6.794;2023-08-06T10:58:21;4.00;;;1.80;;
5569;SDS011;2808;51.240;6.794;2023-08-06T11:00:49;3.57;;;1.40;;
5569;SDS011;2808;51.240;6.794;2023-08-06T11:03:16;5.03;;;1.67;;
5569;SDS011;2808;51.240;6.794;2023-08-06T11:05:48;4.57;;;1.93;;
5569;SDS011;2808;51.240;6.794;2023-08-06T11:08:22;4.83;;;1.73;;
5569;SDS011;2808;51.240;6.794;2023-08-06T11:10:51;4.03;;;2.10;;
5569;SDS011;2808;51.240;6.794;2023-08-06T11:13:19;4.27;;;2.20;;
5569;SDS011;2808;51.240;6.794;2023-08-06T11:15:50;7.50;;;2.10;;
5569;SDS011;2808;51.240;6.794;2023-08-06T11:18:20;4.10;;;2.10;;
5569;SDS011;2808;51.240;6.794;2023-08-06T11:20:47;5.57;;;2.33;;
5569;SDS011;2808;51.240;6.794;2023-08-06T11:23:14;4.13;;;2.30;;
5569;SDS011;2808;51.240;6.794;2023-08-06T11:25:43;5.03;;;2.33;;
5569;SDS011;2808;51.240;6.794;2023-08-06T11:28:11;4.30;;;2.30;;
5569;SDS011;2808;51.240;6.794;2023-08-06T11:30:40;4.50;;;2.50;;
5569;SDS011;2808;51.240;6.794;2023-08-06T11:33:07;3.80;;;2.40;;
5569;SDS011;2808;51.240;6.794;2023-08-06T11:35:35;4.20;;;2.40;;
5569;SDS011;2808;51.240;6.794;2023-08-06T11:38:03;4.70;;;2.03;;
5569;SDS011;2808;51.240;6.794;2023-08-06T11:40:35;6.60;;;2.67;;
5569;SDS011;2808;51.240;6.794;2023-08-06T11:43:02;5.83;;;2.20;;
5569;SDS011;2808;51.240;6.794;2023-08-06T11:45:31;6.80;;;2.30;;
5569;SDS011;2808;51.240;6.794;2023-08-06T11:48:03;4.57;;;2.57;;
5569;SDS011;2808;51.240;6.794;2023-08-06T11:50:31;5.20;;;2.30;;
5569;SDS011;2808;51.240;6.794;2023-08-06T11:53:02;5.47;;;2.90;;
5569;SDS011;2808;51.240;6.794;2023-08-06T11:55:30;6.43;;;2.80;;
5569;SDS011;2808;51.240;6.794;2023-08-06T11:57:57;7.37;;;3.50;;
5569;SDS011;2808;51.240;6.794;2023-08-06T12:00:28;8.37;;;3.57;;
5569;SDS011;2808;51.240;6.794;2023-08-06T12:02:56;6.80;;;3.70;;
5569;SDS011;2808;51.240;6.794;2023-08-06T12:05:29;8.17;;;3.27;;
5569;SDS011;2808;51.240;6.794;2023-08-06T12:07:59;6.27;;;3.13;;
5569;SDS011;2808;51.240;6.794;2023-08-06T12:10:28;6.20;;;3.30;;
5569;SDS011;2808;51.240;6.794;2023-08-06T12:12:56;9.60;;;2.97;;
5569;SDS011;2808;51.240;6.794;2023-08-06T12:15:24;7.50;;;3.10;;
5569;SDS011;2808;51.240;6.794;2023-08-06T12:17:51;7.70;;;2.90;;
5569;SDS011;2808;51.240;6.794;2023-08-06T12:20:19;8.73;;;3.30;;
5569;SDS011;2808;51.240;6.794;2023-08-06T12:22:48;6.53;;;3.40;;
5569;SDS011;2808;51.240;6.794;2023-08-06T12:25:15;7.70;;;3.20;;
5569;SDS011;2808;51.240;6.794;2023-08-06T12:27:43;8.43;;;2.97;;
5569;SDS011;2808;51.240;6.794;2023-08-06T12:30:12;7.50;;;3.00;;
5569;SDS011;2808;51.240;6.794;2023-08-06T12:32:40;7.90;;;3.30;;
5569;SDS011;2808;51.240;6.794;2023-08-06T12:35:07;9.40;;;3.33;;
5569;SDS011;2808;51.240;6.794;2023-08-06T12:37:35;5.10;;;2.80;;
5569;SDS011;2808;51.240;6.794;2023-08-06T12:40:05;6.43;;;2.80;;
5569;SDS011;2808;51.240;6.794;2023-08-06T12:42:33;8.87;;;2.90;;
5569;SDS011;2808;51.240;6.794;2023-08-06T12:45:01;7.63;;;3.23;;
5569;SDS011;2808;51.240;6.794;2023-08-06T12:47:28;5.73;;;3.00;;
5569;SDS011;2808;51.240;6.794;2023-08-06T12:49:56;6.93;;;2.60;;
5569;SDS011;2808;51.240;6.794;2023-08-06T12:52:23;5.50;;;2.73;;
5569;SDS011;2808;51.240;6.794;2023-08-06T12:54:51;6.57;;;3.07;;
5569;SDS011;2808;51.240;6.794;2023-08-06T12:57:19;6.33;;;2.73;;
5569;SDS011;2808;51.240;6.794;2023-08-06T12:59:47;10.40;;;3.50;;
5569;SDS011;2808;51.240;6.794;2023-08-06T13:02:14;5.50;;;2.80;;
5569;SDS011;2808;51.240;6.794;2023-08-06T13:04:43;6.13;;;3.10;;
5569;SDS011;2808;51.240;6.794;2023-08-06T13:07:12;5.73;;;2.60;;
5569;SDS011;2808;51.240;6.794;2023-08-06T13:09:39;5.30;;;2.63;;
5569;SDS011;2808;51.240;6.794;2023-08-06T13:12:06;4.20;;;2.20;;
5569;SDS011;2808;51.240;6.794;2023-08-06T13:14:35;4.40;;;2.60;;
5569;SDS011;2808;51.240;6.794;2023-08-06T13:17:03;8.60;;;2.53;;
5569;SDS011;2808;51.240;6.794;2023-08-06T13:19:31;5.40;;;2.13;;
5569;SDS011;2808;51.240;6.794;2023-08-06T13:22:02;5.33;;;2.20;;
5569;SDS011;2808;51.240;6.794;2023-08-06T13:24:32;6.17;;;2.60;;
5569;SDS011;2808;51.240;6.794;2023-08-06T13:26:59;6.27;;;2.17;;
5569;SDS011;2808;51.240;6.794;2023-08-06T13:29:28;4.43;;;2.03;;
5569;SDS011;2808;51.240;6.794;2023-08-06T13:31:57;6.67;;;2.20;;
5569;SDS011;2808;51.240;6.794;2023-08-06T13:34:24;6.53;;;2.30;;
5569;SDS011;2808;51.240;6.794;2023-08-06T13:36:51;5.63;;;2.23;;
5569;SDS011;2808;51.240;6.794;2023-08-06T13:39:19;6.10;;;2.53;;
5569;SDS011;2808;51.240;6.794;2023-08-06T13:41:46;8.80;;;2.60;;
5569;SDS011;2808;51.240;6.794;2023-08-06T13:44:14;5.97;;;2.47;;
5569;SDS011;2808;51.240;6.794;2023-08-06T13:46:41;6.00;;;2.43;;
5569;SDS011;2808;51.240;6.794;2023-08-06T13:49:10;8.10;;;2.30;;
5569;SDS011;2808;51.240;6.794;2023-08-06T13:51:38;4.80;;;2.07;;
5569;SDS011;2808;51.240;6.794;2023-08-06T13:54:05;4.47;;;2.23;;
5569;SDS011;2808;51.240;6.794;2023-08-06T13:56:34;6.07;;;2.20;;
5569;SDS011;2808;51.240;6.794;2023-08-06T13:59:02;6.07;;;2.23;;
5569;SDS011;2808;51.240;6.794;2023-08-06T14:01:30;4.80;;;2.27;;
5569;SDS011;2808;51.240;6.794;2023-08-06T14:03:58;6.10;;;2.50;;
5569;SDS011;2808;51.240;6.794;2023-08-06T14:06:26;6.77;;;2.10;;
5569;SDS011;2808;51.240;6.794;2023-08-06T14:08:54;6.13;;;2.80;;
5569;SDS011;2808;51.240;6.794;2023-08-06T14:11:21;5.43;;;2.10;;
5569;SDS011;2808;51.240;6.794;2023-08-06T14:13:52;7.00;;;2.23;;
5569;SDS011;2808;51.240;6.794;2023-08-06T14:16:19;4.73;;;2.40;;
5569;SDS011;2808;51.240;6.794;2023-08-06T14:18:47;5.70;;;2.23;;
5569;SDS011;2808;51.240;6.794;2023-08-06T14:21:15;4.87;;;2.20;;
5569;SDS011;2808;51.240;6.794;2023-08-06T14:23:45;9.60;;;3.37;;
5569;SDS011;2808;51.240;6.794;2023-08-06T14:26:13;6.83;;;2.43;;
5569;SDS011;2808;51.240;6.794;2023-08-06T14:28:40;6.90;;;2.30;;
5569;SDS011;2808;51.240;6.794;2023-08-06T14:31:08;5.77;;;2.63;;
5569;SDS011;2808;51.240;6.794;2023-08-06T14:33:38;8.47;;;2.60;;
5569;SDS011;2808;51.240;6.794;2023-08-06T14:36:05;10.20;;;2.17;;
5569;SDS011;2808;51.240;6.794;2023-08-06T14:38:32;9.80;;;2.70;;
5569;SDS011;2808;51.240;6.794;2023-08-06T14:41:01;8.03;;;2.93;;
5569;SDS011;2808;51.240;6.794;2023-08-06T14:43:29;7.33;;;2.77;;
5569;SDS011;2808;51.240;6.794;2023-08-06T14:45:56;4.27;;;2.00;;
5569;SDS011;2808;51.240;6.794;2023-08-06T14:48:23;7.80;;;2.80;;
5569;SDS011;2808;51.240;6.794;2023-08-06T14:50:54;5.83;;;2.43;;
5569;SDS011;2808;51.240;6.794;2023-08-06T14:53:21;7.13;;;1.70;;
5569;SDS011;2808;51.240;6.794;2023-08-06T14:55:49;8.13;;;2.50;;
5569;SDS011;2808;51.240;6.794;2023-08-06T14:58:17;6.43;;;2.20;;
5569;SDS011;2808;51.240;6.794;2023-08-06T15:00:45;6.40;;;2.60;;
5569;SDS011;2808;51.240;6.794;2023-08-06T15:03:12;5.93;;;2.33;;
5569;SDS011;2808;51.240;6.794;2023-08-06T15:05:42;5.20;;;2.00;;
5569;SDS011;2808;51.240;6.794;2023-08-06T15:08:10;5.90;;;1.97;;
5569;SDS011;2808;51.240;6.794;2023-08-06T15:10:37;5.53;;;2.50;;
5569;SDS011;2808;51.240;6.794;2023-08-06T15:13:05;4.70;;;2.40;;
5569;SDS011;2808;51.240;6.794;2023-08-06T15:15:34;4.90;;;2.03;;
5569;SDS011;2808;51.240;6.794;2023-08-06T15:18:06;5.80;;;2.10;;
5569;SDS011;2808;51.240;6.794;2023-08-06T15:20:39;6.60;;;2.23;;
5569;SDS011;2808;51.240;6.794;2023-08-06T15:23:07;6.33;;;2.03;;